Time;durP1;ratioP1;P1;durP2;ratioP2;P2;SDS_P1;SDS_P2;PMS_P1;PMS_P2;Temp;Humidity;BMP_temperature;BMP_pressure;BME280_temperature;BME280_humidity;BME280_pressure;Samples;Min_cycle;Max_cycle;Signal;HPM_P1;HPM_P2
2022/06/16 00:02:11;;;;;;;3.60;1.60;;;;;;;;;;103962;1303;22635;-25
2022/06/16 00:04:49;;;;;;;5.30;1.40;;;;;;;;;;104117;1300;22506;-28
2022/06/16 00:07:26;;;;;;;4.00;1.70;;;;;;;;;;104008;1300;22493;-29
2022/06/16 00:10:04;;;;;;;3.40;1.90;;;;;;;;;;104008;1300;22494;-24
2022/06/16 00:12:41;;;;;;;4.80;2.10;;;;;;;;;;103834;1301;22499;-24
2022/06/16 00:15:21;;;;;;;3.20;1.70;;;;;;;;;;104047;1300;22498;-27
2022/06/16 00:17:59;;;;;;;3.10;2.40;;;;;;;;;;103999;1300;22502;-26
2022/06/16 00:20:36;;;;;;;2.80;1.40;;;;;;;;;;103949;1300;22781;-28
2022/06/16 00:23:14;;;;;;;3.10;1.40;;;;;;;;;;103851;1303;22525;-27
2022/06/16 00:25:54;;;;;;;4.10;1.90;;;;;;;;;;104032;1300;22508;-23
2022/06/16 00:28:32;;;;;;;3.30;1.80;;;;;;;;;;103838;1300;23779;-24
2022/06/16 00:31:10;;;;;;;3.90;1.60;;;;;;;;;;103924;1300;23864;-29
2022/06/16 00:33:47;;;;;;;3.70;1.70;;;;;;;;;;103984;1300;22499;-28
2022/06/16 00:36:25;;;;;;;3.90;2.00;;;;;;;;;;104027;1301;24389;-28
2022/06/16 00:39:02;;;;;;;4.20;1.80;;;;;;;;;;103891;1303;22647;-25
2022/06/16 00:41:40;;;;;;;10.00;2.30;;;;;;;;;;103991;1300;22500;-25
2022/06/16 00:44:36;;;;;;;3.90;2.20;;;;;;;;;;104001;1300;22651;-30
2022/06/16 00:47:14;;;;;;;3.10;2.10;;;;;;;;;;104043;1300;22508;-27
2022/06/16 00:49:52;;;;;;;4.20;2.10;;;;;;;;;;104030;1300;22496;-25
2022/06/16 00:52:31;;;;;;;5.00;2.70;;;;;;;;;;103952;1300;22622;-28
2022/06/16 00:55:11;;;;;;;5.00;2.60;;;;;;;;;;104034;1300;22497;-24
2022/06/16 00:57:49;;;;;;;5.90;2.90;;;;;;;;;;104050;1300;22798;-25
2022/06/16 01:03:07;;;;;;;3.40;2.40;;;;;;;;;;104021;1300;22506;-27
2022/06/16 01:05:45;;;;;;;7.30;3.80;;;;;;;;;;103971;1300;23007;-30
2022/06/16 01:08:22;;;;;;;6.10;3.00;;;;;;;;;;104022;1300;22740;-30
2022/06/16 01:11:02;;;;;;;3.30;2.20;;;;;;;;;;104062;1300;22791;-25
2022/06/16 01:13:42;;;;;;;7.50;2.90;;;;;;;;;;103982;1303;22508;-28
2022/06/16 01:16:23;;;;;;;8.60;2.40;;;;;;;;;;104035;1300;22728;-24
2022/06/16 01:19:04;;;;;;;27.20;2.30;;;;;;;;;;104009;1300;22518;-25
2022/06/16 01:21:42;;;;;;;5.40;3.70;;;;;;;;;;104011;1300;22645;-27
2022/06/16 01:24:31;;;;;;;6.50;4.70;;;;;;;;;;103850;1303;23806;-28
2022/06/16 01:27:23;;;;;;;16.70;4.10;;;;;;;;;;103989;1300;22508;-25
2022/06/16 01:30:02;;;;;;;5.10;3.50;;;;;;;;;;103987;1303;22502;-30
2022/06/16 01:32:43;;;;;;;7.50;3.70;;;;;;;;;;103954;1300;22603;-26
2022/06/16 01:35:26;;;;;;;6.20;3.50;;;;;;;;;;103989;1300;22533;-25
2022/06/16 01:38:05;;;;;;;5.80;3.10;;;;;;;;;;104014;1300;22713;-25
2022/06/16 01:40:43;;;;;;;7.90;3.40;;;;;;;;;;104032;1300;22502;-24
2022/06/16 01:43:24;;;;;;;2.90;2.40;;;;;;;;;;103965;1300;24202;-25
2022/06/16 01:46:04;;;;;;;4.40;2.20;;;;;;;;;;104035;1300;22892;-25
2022/06/16 01:48:42;;;;;;;9.50;2.50;;;;;;;;;;103976;1300;23571;-29
2022/06/16 01:51:23;;;;;;;7.20;3.30;;;;;;;;;;104010;1300;22509;-28
2022/06/16 01:54:04;;;;;;;4.70;2.00;;;;;;;;;;104029;1300;22872;-30
2022/06/16 01:56:45;;;;;;;4.10;2.90;;;;;;;;;;104031;1300;22873;-29
2022/06/16 01:59:30;;;;;;;5.40;2.20;;;;;;;;;;104070;1299;24448;-30
2022/06/16 02:02:08;;;;;;;8.40;2.40;;;;;;;;;;103952;1300;22495;-26
2022/06/16 02:04:47;;;;;;;7.10;2.80;;;;;;;;;;104091;1300;25492;-28
2022/06/16 02:07:27;;;;;;;8.40;2.70;;;;;;;;;;103980;1300;22508;-28
2022/06/16 02:10:07;;;;;;;7.00;2.60;;;;;;;;;;104047;1300;22513;-28
2022/06/16 02:15:25;;;;;;;6.00;3.10;;;;;;;;;;104025;1300;22751;-24
2022/06/16 02:18:04;;;;;;;12.40;3.40;;;;;;;;;;104023;1300;22493;-25
2022/06/16 02:20:46;;;;;;;13.70;2.70;;;;;;;;;;103999;1300;23544;-24
2022/06/16 02:23:24;;;;;;;4.50;2.60;;;;;;;;;;103961;1300;22498;-30
2022/06/16 02:26:02;;;;;;;6.90;3.30;;;;;;;;;;104019;1300;22507;-24
2022/06/16 02:28:41;;;;;;;8.60;3.30;;;;;;;;;;103710;1303;23710;-28
2022/06/16 02:31:38;;;;;;;4.50;2.70;;;;;;;;;;104016;1300;22499;-26
2022/06/16 02:34:21;;;;;;;8.00;3.30;;;;;;;;;;104012;1300;22863;-28
2022/06/16 02:37:04;;;;;;;5.60;3.00;;;;;;;;;;104009;1300;22485;-28
2022/06/16 02:39:46;;;;;;;5.90;3.50;;;;;;;;;;104070;1300;22821;-28
2022/06/16 02:42:27;;;;;;;3.90;2.80;;;;;;;;;;103863;1303;22634;-25
2022/06/16 02:45:08;;;;;;;9.80;3.10;;;;;;;;;;104009;1300;22508;-28
2022/06/16 02:47:48;;;;;;;7.90;2.80;;;;;;;;;;103989;1300;22518;-28
2022/06/16 02:50:38;;;;;;;5.50;3.60;;;;;;;;;;104003;1300;22863;-30
2022/06/16 02:53:18;;;;;;;6.50;4.00;;;;;;;;;;103932;1300;22623;-27
2022/06/16 02:55:57;;;;;;;5.20;2.20;;;;;;;;;;103837;1301;22539;-28
2022/06/16 02:58:35;;;;;;;5.00;3.30;;;;;;;;;;104035;1300;22626;-28
2022/06/16 03:01:12;;;;;;;8.10;3.00;;;;;;;;;;103991;1300;22499;-24
2022/06/16 03:03:53;;;;;;;5.40;3.30;;;;;;;;;;104077;1300;24274;-27
2022/06/16 03:06:31;;;;;;;4.00;2.70;;;;;;;;;;104034;1300;22703;-28
2022/06/16 03:09:08;;;;;;;9.00;2.70;;;;;;;;;;104025;1300;24198;-28
2022/06/16 03:11:46;;;;;;;5.70;3.10;;;;;;;;;;103981;1299;22513;-25
2022/06/16 03:14:23;;;;;;;3.80;2.70;;;;;;;;;;104058;1300;22796;-29
2022/06/16 03:17:02;;;;;;;4.50;3.20;;;;;;;;;;104012;1300;22499;-24
2022/06/16 03:19:39;;;;;;;5.70;3.80;;;;;;;;;;104022;1300;22515;-26
2022/06/16 03:22:19;;;;;;;7.10;4.00;;;;;;;;;;104026;1300;22486;-29
2022/06/16 03:24:56;;;;;;;7.80;4.20;;;;;;;;;;104038;1300;22994;-28
2022/06/16 03:27:34;;;;;;;11.30;4.70;;;;;;;;;;104020;1300;22498;-27
2022/06/16 03:30:11;;;;;;;7.70;4.90;;;;;;;;;;103954;1300;22502;-25
2022/06/16 03:32:49;;;;;;;10.90;4.90;;;;;;;;;;104063;1300;22563;-25
2022/06/16 03:35:27;;;;;;;3.70;3.30;;;;;;;;;;104012;1300;22740;-28
2022/06/16 03:38:09;;;;;;;4.80;3.80;;;;;;;;;;104039;1300;22724;-28
2022/06/16 03:40:46;;;;;;;5.80;3.20;;;;;;;;;;104023;1300;22499;-28
2022/06/16 03:43:24;;;;;;;5.20;4.50;;;;;;;;;;103977;1300;22499;-30
2022/06/16 03:46:01;;;;;;;8.00;3.60;;;;;;;;;;104033;1300;22495;-26
2022/06/16 03:48:39;;;;;;;5.20;3.10;;;;;;;;;;104028;1300;22862;-30
2022/06/16 03:51:17;;;;;;;6.60;3.10;;;;;;;;;;104006;1300;22783;-30
2022/06/16 03:53:54;;;;;;;4.50;2.20;;;;;;;;;;104029;1300;24941;-24
2022/06/16 03:56:32;;;;;;;5.60;3.10;;;;;;;;;;103988;1300;22626;-28
2022/06/16 03:59:09;;;;;;;4.40;3.40;;;;;;;;;;103979;1300;22498;-28
2022/06/16 04:01:47;;;;;;;9.80;3.40;;;;;;;;;;104090;1300;24234;-27
2022/06/16 04:04:25;;;;;;;3.90;2.80;;;;;;;;;;104005;1300;22772;-27
2022/06/16 04:07:02;;;;;;;6.40;3.20;;;;;;;;;;103998;1300;22625;-27
2022/06/16 04:09:40;;;;;;;7.40;4.00;;;;;;;;;;104004;1300;22486;-24
2022/06/16 04:12:17;;;;;;;3.80;2.60;;;;;;;;;;104006;1300;23892;-25
2022/06/16 04:14:54;;;;;;;6.50;3.00;;;;;;;;;;104042;1300;22846;-28
2022/06/16 04:17:32;;;;;;;5.80;3.00;;;;;;;;;;103293;1300;810651;-25
2022/06/16 04:22:51;;;;;;;6.80;3.00;;;;;;;;;;104007;1300;23985;-27
2022/06/16 04:25:31;;;;;;;8.60;3.40;;;;;;;;;;104031;1300;23835;-24
2022/06/16 04:28:09;;;;;;;3.80;2.60;;;;;;;;;;104059;1300;22518;-27
2022/06/16 04:30:46;;;;;;;7.20;2.60;;;;;;;;;;103941;1300;24228;-28
2022/06/16 04:33:24;;;;;;;8.50;2.90;;;;;;;;;;103981;1300;22499;-24
2022/06/16 04:36:01;;;;;;;9.90;2.60;;;;;;;;;;104003;1300;22614;-25
2022/06/16 04:38:39;;;;;;;4.60;2.70;;;;;;;;;;103982;1299;24960;-25
2022/06/16 04:41:16;;;;;;;4.50;2.90;;;;;;;;;;103949;1300;22507;-25
2022/06/16 04:43:54;;;;;;;5.50;2.10;;;;;;;;;;104034;1300;22625;-28
2022/06/16 04:46:36;;;;;;;3.90;2.50;;;;;;;;;;103954;1300;22626;-24
2022/06/16 04:49:14;;;;;;;6.00;2.90;;;;;;;;;;104065;1300;22636;-27
2022/06/16 04:51:51;;;;;;;4.10;2.70;;;;;;;;;;103989;1300;22503;-27
2022/06/16 04:54:29;;;;;;;5.80;3.10;;;;;;;;;;104060;1300;22502;-30
2022/06/16 04:57:06;;;;;;;9.00;2.50;;;;;;;;;;104016;1300;22508;-27
2022/06/16 04:59:44;;;;;;;6.20;2.20;;;;;;;;;;103970;1300;22902;-27
2022/06/16 05:02:21;;;;;;;4.20;2.00;;;;;;;;;;104011;1300;22506;-30
2022/06/16 05:04:59;;;;;;;5.80;2.50;;;;;;;;;;104007;1300;22504;-27
2022/06/16 05:07:37;;;;;;;10.00;2.80;;;;;;;;;;104002;1300;22732;-28
2022/06/16 05:10:14;;;;;;;3.30;2.20;;;;;;;;;;103984;1300;22496;-25
2022/06/16 05:12:52;;;;;;;4.20;2.30;;;;;;;;;;103988;1300;22508;-26
2022/06/16 05:15:29;;;;;;;4.10;2.10;;;;;;;;;;104005;1300;22933;-30
2022/06/16 05:18:08;;;;;;;3.60;2.10;;;;;;;;;;103963;1300;22496;-28
2022/06/16 05:20:45;;;;;;;4.60;2.40;;;;;;;;;;104020;1299;22825;-24
2022/06/16 05:23:23;;;;;;;5.20;2.10;;;;;;;;;;104028;1300;22526;-24
2022/06/16 05:26:01;;;;;;;9.90;2.10;;;;;;;;;;104060;1300;22808;-28
2022/06/16 05:28:38;;;;;;;11.20;2.30;;;;;;;;;;104018;1300;24243;-28
2022/06/16 05:31:15;;;;;;;3.40;1.90;;;;;;;;;;104033;1300;22649;-25
2022/06/16 05:33:53;;;;;;;7.20;2.20;;;;;;;;;;104011;1299;22722;-26
2022/06/16 05:36:30;;;;;;;12.50;2.70;;;;;;;;;;104059;1300;22502;-25
2022/06/16 05:39:08;;;;;;;5.80;2.30;;;;;;;;;;104020;1300;22499;-26
2022/06/16 05:41:46;;;;;;;4.10;2.50;;;;;;;;;;104055;1300;22500;-26
2022/06/16 05:44:23;;;;;;;7.70;2.10;;;;;;;;;;104001;1300;24203;-26
2022/06/16 05:47:01;;;;;;;3.50;1.80;;;;;;;;;;103983;1300;22498;-26
2022/06/16 05:49:40;;;;;;;3.10;1.50;;;;;;;;;;104002;1300;22760;-30
2022/06/16 05:52:18;;;;;;;5.80;2.40;;;;;;;;;;104035;1300;22508;-28
2022/06/16 05:54:56;;;;;;;4.40;2.10;;;;;;;;;;104072;1300;22590;-28
2022/06/16 05:57:33;;;;;;;3.20;1.80;;;;;;;;;;104074;1300;22518;-28
2022/06/16 06:00:11;;;;;;;5.20;1.90;;;;;;;;;;103993;1300;22503;-24
2022/06/16 06:02:49;;;;;;;4.00;2.10;;;;;;;;;;103862;1302;22512;-28
2022/06/16 06:05:27;;;;;;;2.70;1.90;;;;;;;;;;103804;1300;22511;-28
2022/06/16 06:16:25;;;;;;;4.40;1.50;;;;;;;;;;103820;1300;22598;-28
2022/06/16 06:24:26;;;;;;;2.60;1.90;;;;;;;;;;103807;1300;22847;-27
2022/06/16 06:27:05;;;;;;;5.30;1.90;;;;;;;;;;103765;1300;22501;-39
2022/06/16 06:29:46;;;;;;;4.10;2.10;;;;;;;;;;103799;1300;22518;-28
2022/06/16 06:32:23;;;;;;;1.40;1.10;;;;;;;;;;103802;1300;22527;-24
2022/06/16 06:35:01;;;;;;;1.90;1.50;;;;;;;;;;103832;1300;22499;-26
2022/06/16 06:37:39;;;;;;;6.10;1.80;;;;;;;;;;103861;1300;22543;-24
2022/06/16 06:40:18;;;;;;;3.70;1.90;;;;;;;;;;103791;1302;24183;-24
2022/06/16 06:42:55;;;;;;;10.00;1.50;;;;;;;;;;103854;1300;22503;-28
2022/06/16 06:45:33;;;;;;;7.60;1.90;;;;;;;;;;103849;1300;23612;-28
2022/06/16 06:48:11;;;;;;;3.00;1.50;;;;;;;;;;103805;1300;23118;-24
2022/06/16 06:50:49;;;;;;;6.60;1.70;;;;;;;;;;103824;1300;22510;-27
2022/06/16 06:53:26;;;;;;;3.40;1.40;;;;;;;;;;103903;1302;22499;-27
2022/06/16 06:56:04;;;;;;;4.30;1.80;;;;;;;;;;103861;1300;22614;-28
2022/06/16 06:58:41;;;;;;;3.80;2.00;;;;;;;;;;103845;1300;22499;-27
2022/06/16 07:01:19;;;;;;;3.20;2.00;;;;;;;;;;103839;1301;22763;-28
2022/06/16 07:03:56;;;;;;;6.30;1.80;;;;;;;;;;103993;1300;22493;-28
2022/06/16 07:06:34;;;;;;;2.50;1.40;;;;;;;;;;104068;1300;22499;-28
2022/06/16 07:09:12;;;;;;;9.10;2.20;;;;;;;;;;103964;1300;22744;-28
2022/06/16 07:11:49;;;;;;;5.40;1.60;;;;;;;;;;103984;1300;24285;-24
2022/06/16 07:14:29;;;;;;;2.00;1.10;;;;;;;;;;103929;1300;22623;-24
2022/06/16 07:17:07;;;;;;;2.20;1.60;;;;;;;;;;103989;1300;22734;-24
2022/06/16 07:19:44;;;;;;;2.50;1.20;;;;;;;;;;104038;1299;22499;-28
2022/06/16 07:22:22;;;;;;;4.00;1.30;;;;;;;;;;104004;1300;22811;-25
2022/06/16 07:24:59;;;;;;;4.90;1.60;;;;;;;;;;104035;1300;22498;-27
2022/06/16 07:27:37;;;;;;;8.60;1.90;;;;;;;;;;103970;1300;24214;-27
2022/06/16 07:30:17;;;;;;;6.30;1.40;;;;;;;;;;104173;1300;23439;-28
2022/06/16 07:32:55;;;;;;;2.80;1.10;;;;;;;;;;104073;1300;22520;-27
2022/06/16 07:35:33;;;;;;;1.60;1.30;;;;;;;;;;104042;1300;22499;-31
2022/06/16 07:38:11;;;;;;;4.60;1.80;;;;;;;;;;103929;1300;24204;-30
2022/06/16 07:40:49;;;;;;;1.70;1.10;;;;;;;;;;103990;1300;22714;-28
2022/06/16 07:43:26;;;;;;;2.60;1.50;;;;;;;;;;103994;1300;23787;-28
2022/06/16 07:46:04;;;;;;;2.70;1.40;;;;;;;;;;103953;1300;22615;-24
2022/06/16 07:48:41;;;;;;;3.40;1.20;;;;;;;;;;104006;1300;22847;-28
2022/06/16 07:51:19;;;;;;;2.00;1.30;;;;;;;;;;103937;1300;22580;-28
2022/06/16 07:53:56;;;;;;;3.30;2.10;;;;;;;;;;103961;1300;23779;-28
2022/06/16 07:56:34;;;;;;;3.70;1.70;;;;;;;;;;104000;1300;22606;-28
2022/06/16 07:59:12;;;;;;;1.90;1.30;;;;;;;;;;104050;1300;22623;-28
2022/06/16 08:01:49;;;;;;;6.60;2.70;;;;;;;;;;103874;1303;22501;-25
2022/06/16 08:04:27;;;;;;;4.10;1.40;;;;;;;;;;103829;1302;23449;-25
2022/06/16 08:07:04;;;;;;;1.80;1.30;;;;;;;;;;103852;1300;22813;-24
2022/06/16 08:09:42;;;;;;;4.70;1.10;;;;;;;;;;103850;1300;22501;-24
2022/06/16 08:12:20;;;;;;;2.10;1.10;;;;;;;;;;103895;1300;22525;-27
2022/06/16 08:14:58;;;;;;;1.50;1.10;;;;;;;;;;103834;1300;24208;-23
2022/06/16 08:17:36;;;;;;;1.80;1.00;;;;;;;;;;103920;1300;22513;-27
2022/06/16 08:20:14;;;;;;;4.20;1.50;;;;;;;;;;103851;1300;22630;-28
2022/06/16 08:22:52;;;;;;;1.80;1.00;;;;;;;;;;103853;1300;22509;-24
2022/06/16 08:25:30;;;;;;;2.70;1.80;;;;;;;;;;103860;1300;22626;-23
2022/06/16 08:28:07;;;;;;;3.60;1.70;;;;;;;;;;103880;1300;22492;-24
2022/06/16 08:30:46;;;;;;;2.70;1.40;;;;;;;;;;103826;1300;22511;-27
2022/06/16 08:33:23;;;;;;;2.20;1.40;;;;;;;;;;103823;1300;22511;-29
2022/06/16 08:36:01;;;;;;;1.40;1.10;;;;;;;;;;103909;1300;22607;-24
2022/06/16 08:38:38;;;;;;;2.80;1.60;;;;;;;;;;103874;1300;22518;-27
2022/06/16 08:41:17;;;;;;;2.30;1.10;;;;;;;;;;103817;1300;22501;-24
2022/06/16 08:43:56;;;;;;;1.90;1.20;;;;;;;;;;103893;1300;22629;-24
2022/06/16 08:46:36;;;;;;;2.10;1.10;;;;;;;;;;103856;1300;23721;-24
2022/06/16 08:49:19;;;;;;;2.10;1.20;;;;;;;;;;103844;1300;22525;-24
2022/06/16 08:52:01;;;;;;;2.40;1.20;;;;;;;;;;103903;1299;22757;-24
2022/06/16 08:54:44;;;;;;;2.40;1.10;;;;;;;;;;103779;1300;22520;-25
2022/06/16 08:57:26;;;;;;;2.50;1.40;;;;;;;;;;103864;1300;24019;-24
2022/06/16 09:00:05;;;;;;;3.10;1.10;;;;;;;;;;103875;1300;22935;-28
2022/06/16 09:02:43;;;;;;;1.80;1.40;;;;;;;;;;103897;1299;22495;-27
2022/06/16 09:05:24;;;;;;;9.20;1.40;;;;;;;;;;103923;1299;22709;-24
2022/06/16 09:08:05;;;;;;;2.80;1.30;;;;;;;;;;103871;1299;22510;-24
2022/06/16 09:10:43;;;;;;;3.00;1.30;;;;;;;;;;103928;1300;22506;-24
2022/06/16 09:13:25;;;;;;;2.20;1.20;;;;;;;;;;103888;1300;22501;-28
2022/06/16 09:16:26;;;;;;;1.00;0.60;;;;;;;;;;103928;1299;22755;-25
2022/06/16 09:19:07;;;;;;;4.90;1.10;;;;;;;;;;103901;1299;22625;-28
2022/06/16 09:21:47;;;;;;;3.10;1.30;;;;;;;;;;103982;1299;22788;-28
2022/06/16 09:24:29;;;;;;;1.30;1.00;;;;;;;;;;103828;1300;22500;-24
2022/06/16 09:27:10;;;;;;;1.70;1.00;;;;;;;;;;103954;1300;22496;-25
2022/06/16 09:29:51;;;;;;;1.40;0.80;;;;;;;;;;103944;1299;22502;-24
2022/06/16 09:32:32;;;;;;;3.80;1.50;;;;;;;;;;103896;1300;22509;-28
2022/06/16 09:35:12;;;;;;;1.50;1.00;;;;;;;;;;103934;1299;22492;-28
2022/06/16 09:37:53;;;;;;;2.00;1.10;;;;;;;;;;103871;1299;22507;-28
2022/06/16 09:40:33;;;;;;;3.40;1.00;;;;;;;;;;103965;1299;22507;-24
2022/06/16 09:43:14;;;;;;;1.60;1.00;;;;;;;;;;103870;1299;22502;-28
2022/06/16 09:45:53;;;;;;;1.80;1.00;;;;;;;;;;103908;1299;22503;-24
2022/06/16 09:48:32;;;;;;;2.00;1.00;;;;;;;;;;104001;1299;22508;-28
2022/06/16 09:51:11;;;;;;;6.50;1.20;;;;;;;;;;103861;1300;22644;-27
2022/06/16 09:53:55;;;;;;;1.40;1.10;;;;;;;;;;103874;1300;22886;-24
2022/06/16 09:56:37;;;;;;;1.30;0.90;;;;;;;;;;103903;1302;22542;-27
2022/06/16 09:59:16;;;;;;;2.90;1.90;;;;;;;;;;103885;1299;22632;-28
2022/06/16 10:01:55;;;;;;;2.10;1.50;;;;;;;;;;103887;1299;22506;-28
2022/06/16 10:04:32;;;;;;;2.80;1.40;;;;;;;;;;103879;1299;22509;-28
2022/06/16 10:07:14;;;;;;;1.50;1.00;;;;;;;;;;103815;1300;22493;-24
2022/06/16 10:09:53;;;;;;;1.70;1.20;;;;;;;;;;103960;1299;25351;-28
2022/06/16 10:12:34;;;;;;;2.10;0.90;;;;;;;;;;103937;1299;22518;-24
2022/06/16 10:15:23;;;;;;;2.20;1.40;;;;;;;;;;103893;1299;22975;-24
2022/06/16 10:18:01;;;;;;;6.10;1.30;;;;;;;;;;103771;1300;25373;-24
2022/06/16 10:20:39;;;;;;;2.90;1.70;;;;;;;;;;103909;1299;22851;-24
2022/06/16 10:23:19;;;;;;;1.90;1.40;;;;;;;;;;103944;1299;23010;-28
2022/06/16 10:25:58;;;;;;;4.00;1.00;;;;;;;;;;103948;1299;23786;-30
2022/06/16 10:28:38;;;;;;;1.50;0.90;;;;;;;;;;103913;1299;22721;-28
2022/06/16 10:31:18;;;;;;;1.80;1.00;;;;;;;;;;103910;1298;22765;-24
2022/06/16 10:33:56;;;;;;;4.30;1.30;;;;;;;;;;103893;1300;22742;-27
2022/06/16 10:36:33;;;;;;;1.30;0.90;;;;;;;;;;103895;1299;22499;-24
2022/06/16 10:39:14;;;;;;;2.50;1.20;;;;;;;;;;103900;1299;22786;-27
2022/06/16 10:41:53;;;;;;;2.30;1.00;;;;;;;;;;103999;1299;22693;-27
2022/06/16 10:44:31;;;;;;;2.20;0.90;;;;;;;;;;103921;1300;22761;-28
2022/06/16 10:47:08;;;;;;;8.70;0.90;;;;;;;;;;103931;1302;23538;-24
2022/06/16 10:49:46;;;;;;;0.90;0.80;;;;;;;;;;103917;1299;23166;-24
2022/06/16 10:52:26;;;;;;;6.30;1.60;;;;;;;;;;103900;1299;22628;-24
2022/06/16 10:55:20;;;;;;;2.80;1.30;;;;;;;;;;103876;1300;22610;-25
2022/06/16 10:57:59;;;;;;;2.10;1.40;;;;;;;;;;103946;1299;22520;-24
2022/06/16 11:00:36;;;;;;;1.90;1.10;;;;;;;;;;103932;1299;22903;-28
2022/06/16 11:03:15;;;;;;;3.80;1.40;;;;;;;;;;103989;1299;22509;-28
2022/06/16 11:05:54;;;;;;;3.30;1.30;;;;;;;;;;103928;1299;22508;-25
2022/06/16 11:08:38;;;;;;;1.10;0.80;;;;;;;;;;104017;1299;22508;-28
2022/06/16 11:11:18;;;;;;;2.40;1.10;;;;;;;;;;103848;1300;22718;-25
2022/06/16 11:13:56;;;;;;;1.60;1.20;;;;;;;;;;104009;1299;22742;-28
2022/06/16 11:16:37;;;;;;;1.80;1.30;;;;;;;;;;103964;1302;24356;-28
2022/06/16 11:19:17;;;;;;;3.10;1.40;;;;;;;;;;103950;1299;22503;-28
2022/06/16 11:21:55;;;;;;;2.60;1.60;;;;;;;;;;103973;1299;22499;-28
2022/06/16 11:24:33;;;;;;;4.80;1.50;;;;;;;;;;103993;1299;22631;-25
2022/06/16 11:27:11;;;;;;;4.50;1.50;;;;;;;;;;104059;1299;22593;-28
2022/06/16 11:29:48;;;;;;;2.50;1.00;;;;;;;;;;103904;1299;22812;-24
2022/06/16 11:32:31;;;;;;;2.10;0.90;;;;;;;;;;103925;1300;22836;-25
2022/06/16 11:35:09;;;;;;;3.00;1.00;;;;;;;;;;103922;1299;22505;-25
2022/06/16 11:37:48;;;;;;;2.20;0.90;;;;;;;;;;103885;1299;22609;-28
2022/06/16 11:40:31;;;;;;;2.20;1.30;;;;;;;;;;103858;1299;22629;-28
2022/06/16 11:43:12;;;;;;;1.80;0.80;;;;;;;;;;103827;1299;22589;-24
2022/06/16 11:45:54;;;;;;;2.20;0.90;;;;;;;;;;103909;1299;22520;-25
2022/06/16 11:48:37;;;;;;;3.40;1.10;;;;;;;;;;103904;1300;22646;-28
2022/06/16 11:51:19;;;;;;;1.00;0.70;;;;;;;;;;103866;1299;22501;-24
2022/06/16 11:53:56;;;;;;;1.80;1.20;;;;;;;;;;103944;1299;22870;-24
2022/06/16 11:56:39;;;;;;;0.80;0.60;;;;;;;;;;103861;1299;22765;-25
2022/06/16 11:59:24;;;;;;;4.90;1.10;;;;;;;;;;103985;1299;22698;-24
2022/06/16 12:02:03;;;;;;;4.50;0.80;;;;;;;;;;103811;1300;22544;-28
2022/06/16 12:04:51;;;;;;;11.70;1.00;;;;;;;;;;103918;1299;22731;-28
2022/06/16 12:07:32;;;;;;;1.50;0.70;;;;;;;;;;103873;1299;22492;-24
2022/06/16 12:10:10;;;;;;;1.80;0.80;;;;;;;;;;103948;1299;22745;-24
2022/06/16 12:12:50;;;;;;;2.00;0.80;;;;;;;;;;103949;1299;22514;-24
2022/06/16 12:15:33;;;;;;;1.40;1.10;;;;;;;;;;103884;1302;22758;-24
2022/06/16 12:18:22;;;;;;;1.50;0.90;;;;;;;;;;103422;1300;22708;-27
2022/06/16 12:21:02;;;;;;;1.30;0.80;;;;;;;;;;103960;1299;22509;-27
2022/06/16 12:23:43;;;;;;;1.50;0.80;;;;;;;;;;103929;1299;24234;-27
2022/06/16 12:26:22;;;;;;;1.40;1.00;;;;;;;;;;103909;1299;22973;-27
2022/06/16 12:29:19;;;;;;;2.90;0.80;;;;;;;;;;103863;1299;22799;-24
2022/06/16 12:32:00;;;;;;;2.10;1.40;;;;;;;;;;103898;1302;22765;-30
2022/06/16 12:34:42;;;;;;;3.20;0.90;;;;;;;;;;103932;1299;22633;-24
2022/06/16 12:37:21;;;;;;;2.30;1.40;;;;;;;;;;103916;1299;22515;-24
2022/06/16 12:40:02;;;;;;;2.40;0.90;;;;;;;;;;103885;1299;22888;-27
2022/06/16 12:42:42;;;;;;;1.70;1.10;;;;;;;;;;103945;1299;22516;-30
2022/06/16 12:45:23;;;;;;;3.60;1.00;;;;;;;;;;103829;1300;22635;-29
2022/06/16 12:48:02;;;;;;;2.70;0.90;;;;;;;;;;103943;1299;23850;-25
2022/06/16 12:50:42;;;;;;;1.10;1.00;;;;;;;;;;103907;1299;22517;-24
2022/06/16 12:53:23;;;;;;;3.80;1.00;;;;;;;;;;103935;1297;24233;-25
2022/06/16 12:56:04;;;;;;;2.40;1.10;;;;;;;;;;103962;1299;22553;-28
2022/06/16 12:58:45;;;;;;;1.90;1.50;;;;;;;;;;103951;1299;22591;-25
2022/06/16 13:01:23;;;;;;;1.40;1.00;;;;;;;;;;103982;1299;22836;-26
2022/06/16 13:04:01;;;;;;;0.90;0.70;;;;;;;;;;103862;1302;22515;-24
2022/06/16 13:06:40;;;;;;;2.80;1.30;;;;;;;;;;103885;1300;22732;-24
2022/06/16 13:09:18;;;;;;;1.40;1.20;;;;;;;;;;103882;1299;22509;-28
2022/06/16 13:11:58;;;;;;;6.60;1.00;;;;;;;;;;103948;1302;22634;-30
2022/06/16 13:14:36;;;;;;;2.10;1.00;;;;;;;;;;103816;1302;23565;-25
2022/06/16 13:17:14;;;;;;;1.00;0.60;;;;;;;;;;103896;1302;22498;-28
2022/06/16 13:19:54;;;;;;;4.20;1.40;;;;;;;;;;103919;1299;22506;-25
2022/06/16 13:22:34;;;;;;;3.40;0.90;;;;;;;;;;103859;1300;22793;-24
2022/06/16 13:25:13;;;;;;;1.20;0.90;;;;;;;;;;103877;1300;22529;-30
2022/06/16 13:27:53;;;;;;;1.70;1.10;;;;;;;;;;103889;1299;22502;-28
2022/06/16 13:30:30;;;;;;;2.30;1.10;;;;;;;;;;103849;1300;22622;-27
2022/06/16 13:33:12;;;;;;;1.90;1.20;;;;;;;;;;103880;1299;22501;-30
2022/06/16 13:35:50;;;;;;;7.80;2.10;;;;;;;;;;103975;1298;22888;-26
2022/06/16 13:38:36;;;;;;;3.60;1.60;;;;;;;;;;103904;1302;22758;-25
2022/06/16 13:41:17;;;;;;;4.60;2.40;;;;;;;;;;103960;1299;24216;-31
2022/06/16 13:43:58;;;;;;;3.10;2.40;;;;;;;;;;103917;1299;22502;-27
2022/06/16 13:46:39;;;;;;;2.10;1.20;;;;;;;;;;103954;1299;22496;-26
2022/06/16 13:49:28;;;;;;;7.10;1.30;;;;;;;;;;104034;1299;22594;-32
2022/06/16 13:52:14;;;;;;;7.10;2.00;;;;;;;;;;104017;1302;22609;-30
2022/06/16 13:54:52;;;;;;;3.20;1.90;;;;;;;;;;103882;1299;22880;-24
2022/06/16 13:57:29;;;;;;;2.40;1.40;;;;;;;;;;103889;1299;23004;-25
2022/06/16 14:00:09;;;;;;;1.80;1.00;;;;;;;;;;103888;1299;22502;-32
2022/06/16 14:02:50;;;;;;;4.10;1.70;;;;;;;;;;103928;1299;24963;-30
2022/06/16 14:05:29;;;;;;;4.80;2.50;;;;;;;;;;103979;1299;22499;-30
2022/06/16 14:08:07;;;;;;;4.10;1.80;;;;;;;;;;103967;1299;22708;-32
2022/06/16 14:10:47;;;;;;;6.70;1.50;;;;;;;;;;103910;1299;25329;-26
2022/06/16 14:13:37;;;;;;;5.50;2.10;;;;;;;;;;103983;1299;22721;-30
2022/06/16 14:16:15;;;;;;;1.40;1.20;;;;;;;;;;103843;1303;22956;-25
2022/06/16 14:18:56;;;;;;;7.60;2.10;;;;;;;;;;103898;1299;22511;-30
2022/06/16 14:21:37;;;;;;;1.70;1.40;;;;;;;;;;103947;1299;22877;-30
2022/06/16 14:24:17;;;;;;;1.70;1.60;;;;;;;;;;103943;1300;24193;-27
2022/06/16 14:26:55;;;;;;;3.90;1.30;;;;;;;;;;103926;1299;22502;-26
2022/06/16 14:29:33;;;;;;;2.40;1.70;;;;;;;;;;103936;1299;22503;-30
2022/06/16 14:32:13;;;;;;;1.00;0.70;;;;;;;;;;103981;1300;22614;-25
2022/06/16 14:34:52;;;;;;;2.30;1.20;;;;;;;;;;103996;1300;22514;-26
2022/06/16 14:37:31;;;;;;;2.20;1.40;;;;;;;;;;104018;1299;22502;-27
2022/06/16 14:40:11;;;;;;;2.40;1.30;;;;;;;;;;103915;1299;23351;-24
2022/06/16 14:42:49;;;;;;;1.20;0.90;;;;;;;;;;103903;1302;22738;-25
2022/06/16 14:45:30;;;;;;;2.30;1.20;;;;;;;;;;103917;1299;22511;-29
2022/06/16 14:48:08;;;;;;;2.40;1.20;;;;;;;;;;103958;1299;22503;-25
2022/06/16 14:50:48;;;;;;;1.40;1.10;;;;;;;;;;103880;1299;24256;-30
2022/06/16 14:53:27;;;;;;;2.10;0.90;;;;;;;;;;103919;1299;23528;-29
2022/06/16 14:56:04;;;;;;;4.20;1.20;;;;;;;;;;103793;1300;22607;-23
2022/06/16 14:58:45;;;;;;;2.80;1.40;;;;;;;;;;103947;1299;22503;-28
2022/06/16 15:01:25;;;;;;;3.20;1.70;;;;;;;;;;103964;1299;22754;-30
2022/06/16 15:04:04;;;;;;;2.20;1.40;;;;;;;;;;103918;1299;22503;-26
2022/06/16 15:06:42;;;;;;;2.30;1.10;;;;;;;;;;103915;1299;22499;-26
2022/06/16 15:09:22;;;;;;;1.10;0.90;;;;;;;;;;103957;1299;23763;-30
2022/06/16 15:12:00;;;;;;;2.20;1.20;;;;;;;;;;103946;1299;22497;-28
2022/06/16 15:14:38;;;;;;;4.50;1.20;;;;;;;;;;103933;1299;23754;-24
2022/06/16 15:19:58;;;;;;;2.00;1.00;;;;;;;;;;103812;1302;22502;-28
2022/06/16 15:22:37;;;;;;;2.60;1.30;;;;;;;;;;103830;1299;22607;-24
2022/06/16 15:25:15;;;;;;;2.40;1.10;;;;;;;;;;103878;1299;22611;-28
2022/06/16 15:27:52;;;;;;;2.70;1.40;;;;;;;;;;103888;1299;22862;-28
2022/06/16 15:30:31;;;;;;;3.00;1.20;;;;;;;;;;103843;1302;22505;-28
2022/06/16 15:38:33;;;;;;;1.90;1.40;;;;;;;;;;103866;1300;22848;-26
2022/06/16 15:41:14;;;;;;;3.00;1.90;;;;;;;;;;103881;1299;23668;-30
2022/06/16 15:43:54;;;;;;;3.10;1.00;;;;;;;;;;103939;1299;24944;-29
2022/06/16 15:46:32;;;;;;;2.00;1.20;;;;;;;;;;103931;1302;24208;-28
2022/06/16 15:49:10;;;;;;;1.40;1.20;;;;;;;;;;103829;1302;22499;-25
2022/06/16 15:51:47;;;;;;;2.40;1.40;;;;;;;;;;103953;1299;24234;-28
2022/06/16 15:54:25;;;;;;;5.20;1.60;;;;;;;;;;103915;1299;22694;-26
2022/06/16 15:57:03;;;;;;;1.70;1.10;;;;;;;;;;103778;1302;22517;-30
2022/06/16 15:59:43;;;;;;;2.20;1.60;;;;;;;;;;103917;1299;22813;-26
2022/06/16 16:02:22;;;;;;;2.10;1.80;;;;;;;;;;103944;1299;22516;-30
2022/06/16 16:05:00;;;;;;;3.70;2.70;;;;;;;;;;103952;1299;22513;-26
2022/06/16 16:07:38;;;;;;;1.80;1.20;;;;;;;;;;103829;1299;22500;-30
2022/06/16 16:10:16;;;;;;;2.60;2.00;;;;;;;;;;103852;1302;22518;-28